sensor_id;sensor_type;location;lat;lon;timestamp;P1;durP1;ratioP1;P2;durP2;ratioP2
33285;SDS011;19656;50.096;20.014;2022-09-12T00:03:26;7.50;;;5.00;;
33285;SDS011;19656;50.096;20.014;2022-09-12T00:08:29;7.30;;;4.90;;
33285;SDS011;19656;50.096;20.014;2022-09-12T00:13:32;10.60;;;5.20;;
33285;SDS011;19656;50.096;20.014;2022-09-12T00:18:41;8.70;;;5.50;;
33285;SDS011;19656;50.096;20.014;2022-09-12T00:23:44;9.20;;;5.60;;
33285;SDS011;19656;50.096;20.014;2022-09-12T00:28:48;7.20;;;5.30;;
33285;SDS011;19656;50.096;20.014;2022-09-12T00:33:53;12.80;;;5.60;;
33285;SDS011;19656;50.096;20.014;2022-09-12T00:38:58;9.00;;;5.30;;
33285;SDS011;19656;50.096;20.014;2022-09-12T00:49:28;8.90;;;5.90;;
33285;SDS011;19656;50.096;20.014;2022-09-12T00:54:36;7.30;;;5.60;;
33285;SDS011;19656;50.096;20.014;2022-09-12T00:59:47;8.10;;;5.00;;
33285;SDS011;19656;50.096;20.014;2022-09-12T01:04:55;8.50;;;5.20;;
33285;SDS011;19656;50.096;20.014;2022-09-12T01:09:58;7.60;;;5.50;;
33285;SDS011;19656;50.096;20.014;2022-09-12T01:15:01;8.20;;;5.60;;
33285;SDS011;19656;50.096;20.014;2022-09-12T01:20:15;7.40;;;6.30;;
33285;SDS011;19656;50.096;20.014;2022-09-12T01:41:47;7.60;;;4.90;;
33285;SDS011;19656;50.096;20.014;2022-09-12T01:47:01;9.60;;;5.30;;
33285;SDS011;19656;50.096;20.014;2022-09-12T01:52:14;6.00;;;4.60;;
33285;SDS011;19656;50.096;20.014;2022-09-12T01:57:27;6.20;;;4.70;;
33285;SDS011;19656;50.096;20.014;2022-09-12T02:02:56;7.40;;;4.70;;
33285;SDS011;19656;50.096;20.014;2022-09-12T02:08:12;7.20;;;4.50;;
33285;SDS011;19656;50.096;20.014;2022-09-12T02:13:21;7.50;;;4.60;;
33285;SDS011;19656;50.096;20.014;2022-09-12T02:18:31;10.90;;;4.80;;
33285;SDS011;19656;50.096;20.014;2022-09-12T02:23:39;8.00;;;4.40;;
33285;SDS011;19656;50.096;20.014;2022-09-12T02:28:46;7.00;;;5.00;;
33285;SDS011;19656;50.096;20.014;2022-09-12T02:39:05;7.00;;;4.40;;
33285;SDS011;19656;50.096;20.014;2022-09-12T02:44:08;6.10;;;4.60;;
33285;SDS011;19656;50.096;20.014;2022-09-12T02:49:11;9.60;;;6.00;;
33285;SDS011;19656;50.096;20.014;2022-09-12T02:54:14;10.00;;;6.70;;
33285;SDS011;19656;50.096;20.014;2022-09-12T02:59:19;9.90;;;7.00;;
33285;SDS011;19656;50.096;20.014;2022-09-12T03:20:21;14.90;;;7.90;;
33285;SDS011;19656;50.096;20.014;2022-09-12T03:25:42;12.10;;;8.90;;
33285;SDS011;19656;50.096;20.014;2022-09-12T03:31:13;13.30;;;9.70;;
33285;SDS011;19656;50.096;20.014;2022-09-12T03:36:19;12.90;;;9.90;;
33285;SDS011;19656;50.096;20.014;2022-09-12T03:41:25;14.10;;;10.10;;
33285;SDS011;19656;50.096;20.014;2022-09-12T03:46:28;13.10;;;10.00;;
33285;SDS011;19656;50.096;20.014;2022-09-12T03:51:31;13.20;;;10.30;;
33285;SDS011;19656;50.096;20.014;2022-09-12T03:56:34;14.00;;;9.90;;
33285;SDS011;19656;50.096;20.014;2022-09-12T04:01:37;13.00;;;9.50;;
33285;SDS011;19656;50.096;20.014;2022-09-12T04:06:40;13.70;;;10.90;;
33285;SDS011;19656;50.096;20.014;2022-09-12T04:11:44;13.60;;;10.50;;
33285;SDS011;19656;50.096;20.014;2022-09-12T04:16:47;17.10;;;10.30;;
33285;SDS011;19656;50.096;20.014;2022-09-12T04:21:50;16.20;;;10.70;;
33285;SDS011;19656;50.096;20.014;2022-09-12T04:26:54;13.40;;;9.70;;
33285;SDS011;19656;50.096;20.014;2022-09-12T04:31:57;12.50;;;9.60;;
33285;SDS011;19656;50.096;20.014;2022-09-12T04:37:00;12.80;;;9.50;;
33285;SDS011;19656;50.096;20.014;2022-09-12T04:42:03;13.20;;;11.10;;
33285;SDS011;19656;50.096;20.014;2022-09-12T04:47:07;13.40;;;10.80;;
33285;SDS011;19656;50.096;20.014;2022-09-12T04:52:10;16.20;;;11.20;;
33285;SDS011;19656;50.096;20.014;2022-09-12T04:57:13;14.80;;;10.80;;
33285;SDS011;19656;50.096;20.014;2022-09-12T05:02:16;16.80;;;10.60;;
33285;SDS011;19656;50.096;20.014;2022-09-12T05:07:19;13.20;;;10.80;;
33285;SDS011;19656;50.096;20.014;2022-09-12T05:12:22;12.90;;;10.80;;
33285;SDS011;19656;50.096;20.014;2022-09-12T05:17:27;14.90;;;11.50;;
33285;SDS011;19656;50.096;20.014;2022-09-12T05:22:31;14.80;;;10.30;;
33285;SDS011;19656;50.096;20.014;2022-09-12T05:27:34;13.40;;;8.60;;
33285;SDS011;19656;50.096;20.014;2022-09-12T05:32:37;11.50;;;8.20;;
33285;SDS011;19656;50.096;20.014;2022-09-12T05:37:41;11.90;;;7.50;;
33285;SDS011;19656;50.096;20.014;2022-09-12T05:42:44;8.30;;;6.40;;
33285;SDS011;19656;50.096;20.014;2022-09-12T05:47:47;10.00;;;5.50;;
33285;SDS011;19656;50.096;20.014;2022-09-12T05:52:50;7.50;;;4.60;;
33285;SDS011;19656;50.096;20.014;2022-09-12T05:57:53;5.10;;;4.00;;
33285;SDS011;19656;50.096;20.014;2022-09-12T06:02:56;5.90;;;3.60;;
33285;SDS011;19656;50.096;20.014;2022-09-12T06:07:59;3.80;;;3.10;;
33285;SDS011;19656;50.096;20.014;2022-09-12T06:13:02;7.60;;;3.20;;
33285;SDS011;19656;50.096;20.014;2022-09-12T06:18:05;6.10;;;3.10;;
33285;SDS011;19656;50.096;20.014;2022-09-12T06:23:08;7.10;;;3.30;;
33285;SDS011;19656;50.096;20.014;2022-09-12T06:28:11;7.50;;;3.40;;
33285;SDS011;19656;50.096;20.014;2022-09-12T06:33:15;4.00;;;2.70;;
33285;SDS011;19656;50.096;20.014;2022-09-12T06:38:18;5.30;;;2.80;;
33285;SDS011;19656;50.096;20.014;2022-09-12T06:43:21;4.90;;;2.20;;
33285;SDS011;19656;50.096;20.014;2022-09-12T06:48:24;11.50;;;2.40;;
33285;SDS011;19656;50.096;20.014;2022-09-12T06:53:28;2.90;;;2.30;;
33285;SDS011;19656;50.096;20.014;2022-09-12T06:58:32;5.00;;;2.40;;
33285;SDS011;19656;50.096;20.014;2022-09-12T07:03:36;4.60;;;2.80;;
33285;SDS011;19656;50.096;20.014;2022-09-12T07:08:40;5.20;;;2.40;;
33285;SDS011;19656;50.096;20.014;2022-09-12T07:13:44;4.10;;;2.00;;
33285;SDS011;19656;50.096;20.014;2022-09-12T07:18:49;4.60;;;2.10;;
33285;SDS011;19656;50.096;20.014;2022-09-12T07:23:54;4.40;;;2.00;;
33285;SDS011;19656;50.096;20.014;2022-09-12T07:28:59;3.90;;;2.50;;
33285;SDS011;19656;50.096;20.014;2022-09-12T07:34:23;4.10;;;2.10;;
33285;SDS011;19656;50.096;20.014;2022-09-12T07:39:26;7.90;;;2.40;;
33285;SDS011;19656;50.096;20.014;2022-09-12T07:44:29;4.20;;;2.60;;
33285;SDS011;19656;50.096;20.014;2022-09-12T07:49:32;6.80;;;2.10;;
33285;SDS011;19656;50.096;20.014;2022-09-12T07:54:35;6.20;;;2.10;;
33285;SDS011;19656;50.096;20.014;2022-09-12T07:59:38;5.30;;;2.10;;
33285;SDS011;19656;50.096;20.014;2022-09-12T08:04:55;3.60;;;2.10;;
33285;SDS011;19656;50.096;20.014;2022-09-12T08:09:58;4.50;;;1.90;;
33285;SDS011;19656;50.096;20.014;2022-09-12T08:15:02;3.30;;;2.00;;
33285;SDS011;19656;50.096;20.014;2022-09-12T08:20:06;3.30;;;2.00;;
33285;SDS011;19656;50.096;20.014;2022-09-12T08:25:10;4.10;;;2.00;;
33285;SDS011;19656;50.096;20.014;2022-09-12T08:30:13;3.20;;;2.00;;
33285;SDS011;19656;50.096;20.014;2022-09-12T08:35:17;5.60;;;2.10;;
33285;SDS011;19656;50.096;20.014;2022-09-12T08:40:19;6.50;;;2.00;;
33285;SDS011;19656;50.096;20.014;2022-09-12T08:45:28;3.50;;;2.00;;
33285;SDS011;19656;50.096;20.014;2022-09-12T08:50:40;3.10;;;1.90;;
33285;SDS011;19656;50.096;20.014;2022-09-12T09:06:18;4.90;;;1.90;;
33285;SDS011;19656;50.096;20.014;2022-09-12T09:11:44;6.30;;;3.40;;
33285;SDS011;19656;50.096;20.014;2022-09-12T09:17:14;2.40;;;1.40;;
33285;SDS011;19656;50.096;20.014;2022-09-12T09:22:31;3.20;;;1.90;;
33285;SDS011;19656;50.096;20.014;2022-09-12T09:27:42;3.00;;;1.80;;
33285;SDS011;19656;50.096;20.014;2022-09-12T09:32:52;3.60;;;1.30;;
33285;SDS011;19656;50.096;20.014;2022-09-12T09:38:00;3.80;;;1.60;;
33285;SDS011;19656;50.096;20.014;2022-09-12T09:43:19;2.30;;;1.70;;
33285;SDS011;19656;50.096;20.014;2022-09-12T09:48:31;5.50;;;1.40;;
33285;SDS011;19656;50.096;20.014;2022-09-12T09:53:53;2.10;;;1.40;;
33285;SDS011;19656;50.096;20.014;2022-09-12T10:09:36;3.60;;;1.60;;
33285;SDS011;19656;50.096;20.014;2022-09-12T10:14:39;5.80;;;1.50;;
33285;SDS011;19656;50.096;20.014;2022-09-12T10:19:43;5.60;;;1.40;;
33285;SDS011;19656;50.096;20.014;2022-09-12T10:25:01;2.80;;;1.30;;
33285;SDS011;19656;50.096;20.014;2022-09-12T10:35:17;4.10;;;1.40;;
33285;SDS011;19656;50.096;20.014;2022-09-12T10:40:27;4.70;;;1.40;;
33285;SDS011;19656;50.096;20.014;2022-09-12T10:45:35;4.60;;;1.60;;
33285;SDS011;19656;50.096;20.014;2022-09-12T10:50:42;2.40;;;1.20;;
33285;SDS011;19656;50.096;20.014;2022-09-12T10:55:51;5.10;;;1.60;;
33285;SDS011;19656;50.096;20.014;2022-09-12T11:01:03;3.70;;;1.60;;
33285;SDS011;19656;50.096;20.014;2022-09-12T11:06:42;2.60;;;1.40;;
33285;SDS011;19656;50.096;20.014;2022-09-12T11:17:10;3.80;;;1.90;;
33285;SDS011;19656;50.096;20.014;2022-09-12T11:22:42;4.10;;;1.30;;
33285;SDS011;19656;50.096;20.014;2022-09-12T11:38:54;1.90;;;1.30;;
33285;SDS011;19656;50.096;20.014;2022-09-12T11:44:09;4.20;;;1.40;;
33285;SDS011;19656;50.096;20.014;2022-09-12T11:49:22;2.30;;;1.40;;
33285;SDS011;19656;50.096;20.014;2022-09-12T11:54:40;3.40;;;1.40;;
33285;SDS011;19656;50.096;20.014;2022-09-12T12:00:05;5.60;;;1.40;;
33285;SDS011;19656;50.096;20.014;2022-09-12T12:05:15;3.20;;;1.40;;
33285;SDS011;19656;50.096;20.014;2022-09-12T12:10:40;4.10;;;1.40;;
33285;SDS011;19656;50.096;20.014;2022-09-12T12:15:46;2.70;;;1.50;;
33285;SDS011;19656;50.096;20.014;2022-09-12T12:20:53;2.40;;;1.40;;
33285;SDS011;19656;50.096;20.014;2022-09-12T12:25:58;2.70;;;1.30;;
33285;SDS011;19656;50.096;20.014;2022-09-12T12:31:03;4.50;;;1.50;;
33285;SDS011;19656;50.096;20.014;2022-09-12T12:36:07;4.20;;;1.30;;
33285;SDS011;19656;50.096;20.014;2022-09-12T12:46:21;2.30;;;1.40;;
33285;SDS011;19656;50.096;20.014;2022-09-12T13:01:43;3.20;;;2.00;;
33285;SDS011;19656;50.096;20.014;2022-09-12T13:06:57;1.90;;;1.10;;
33285;SDS011;19656;50.096;20.014;2022-09-12T13:12:10;3.60;;;1.30;;
33285;SDS011;19656;50.096;20.014;2022-09-12T13:17:53;2.00;;;1.20;;
33285;SDS011;19656;50.096;20.014;2022-09-12T13:22:49;4.50;;;1.20;;
33285;SDS011;19656;50.096;20.014;2022-09-12T13:43:59;5.50;;;2.40;;
33285;SDS011;19656;50.096;20.014;2022-09-12T13:49:37;3.00;;;1.30;;
33285;SDS011;19656;50.096;20.014;2022-09-12T13:54:40;2.50;;;1.20;;
33285;SDS011;19656;50.096;20.014;2022-09-12T13:59:47;3.10;;;1.40;;
33285;SDS011;19656;50.096;20.014;2022-09-12T14:04:51;4.30;;;1.60;;
33285;SDS011;19656;50.096;20.014;2022-09-12T14:10:27;3.20;;;1.40;;
33285;SDS011;19656;50.096;20.014;2022-09-12T14:15:34;3.40;;;1.40;;
33285;SDS011;19656;50.096;20.014;2022-09-12T14:20:39;5.30;;;1.50;;
33285;SDS011;19656;50.096;20.014;2022-09-12T14:25:43;4.20;;;1.60;;
33285;SDS011;19656;50.096;20.014;2022-09-12T14:30:56;5.00;;;1.60;;
33285;SDS011;19656;50.096;20.014;2022-09-12T14:36:16;5.70;;;1.70;;
33285;SDS011;19656;50.096;20.014;2022-09-12T14:41:22;2.60;;;1.40;;
33285;SDS011;19656;50.096;20.014;2022-09-12T14:51:39;2.70;;;1.50;;
33285;SDS011;19656;50.096;20.014;2022-09-12T14:56:57;3.60;;;1.60;;
33285;SDS011;19656;50.096;20.014;2022-09-12T15:12:43;3.30;;;2.30;;
33285;SDS011;19656;50.096;20.014;2022-09-12T15:17:46;2.20;;;1.60;;
33285;SDS011;19656;50.096;20.014;2022-09-12T15:22:49;3.50;;;1.70;;
33285;SDS011;19656;50.096;20.014;2022-09-12T15:27:53;4.20;;;1.90;;
33285;SDS011;19656;50.096;20.014;2022-09-12T15:32:57;4.40;;;2.00;;
33285;SDS011;19656;50.096;20.014;2022-09-12T15:38:01;3.30;;;1.50;;
33285;SDS011;19656;50.096;20.014;2022-09-12T15:43:04;2.90;;;1.70;;
33285;SDS011;19656;50.096;20.014;2022-09-12T15:48:07;6.40;;;1.70;;
33285;SDS011;19656;50.096;20.014;2022-09-12T15:53:14;7.10;;;1.70;;
33285;SDS011;19656;50.096;20.014;2022-09-12T15:58:19;3.10;;;1.70;;
33285;SDS011;19656;50.096;20.014;2022-09-12T16:03:23;4.20;;;1.50;;
33285;SDS011;19656;50.096;20.014;2022-09-12T16:08:30;2.70;;;1.70;;
33285;SDS011;19656;50.096;20.014;2022-09-12T16:13:35;2.90;;;1.90;;
33285;SDS011;19656;50.096;20.014;2022-09-12T16:18:39;4.10;;;1.70;;
33285;SDS011;19656;50.096;20.014;2022-09-12T16:23:42;5.10;;;1.80;;
33285;SDS011;19656;50.096;20.014;2022-09-12T16:28:46;3.30;;;1.80;;
33285;SDS011;19656;50.096;20.014;2022-09-12T16:33:49;4.10;;;1.80;;
33285;SDS011;19656;50.096;20.014;2022-09-12T16:38:52;6.20;;;1.70;;
33285;SDS011;19656;50.096;20.014;2022-09-12T16:43:56;3.20;;;1.90;;
33285;SDS011;19656;50.096;20.014;2022-09-12T16:48:59;4.20;;;1.90;;
33285;SDS011;19656;50.096;20.014;2022-09-12T16:54:03;3.40;;;2.00;;
33285;SDS011;19656;50.096;20.014;2022-09-12T16:59:07;4.70;;;2.30;;
33285;SDS011;19656;50.096;20.014;2022-09-12T17:04:13;5.10;;;2.30;;
33285;SDS011;19656;50.096;20.014;2022-09-12T17:09:16;10.00;;;3.00;;
33285;SDS011;19656;50.096;20.014;2022-09-12T17:14:20;4.70;;;2.60;;
33285;SDS011;19656;50.096;20.014;2022-09-12T17:19:24;6.20;;;2.20;;
33285;SDS011;19656;50.096;20.014;2022-09-12T17:24:31;6.00;;;2.10;;
33285;SDS011;19656;50.096;20.014;2022-09-12T17:29:34;7.00;;;2.40;;
33285;SDS011;19656;50.096;20.014;2022-09-12T17:34:39;5.00;;;2.40;;
33285;SDS011;19656;50.096;20.014;2022-09-12T17:39:42;4.70;;;2.50;;
33285;SDS011;19656;50.096;20.014;2022-09-12T17:44:45;5.30;;;2.60;;
33285;SDS011;19656;50.096;20.014;2022-09-12T17:49:50;5.00;;;2.30;;
33285;SDS011;19656;50.096;20.014;2022-09-12T17:55:15;3.20;;;2.20;;
33285;SDS011;19656;50.096;20.014;2022-09-12T18:00:19;5.50;;;2.80;;
33285;SDS011;19656;50.096;20.014;2022-09-12T18:05:45;6.00;;;2.50;;
33285;SDS011;19656;50.096;20.014;2022-09-12T18:10:50;8.50;;;3.20;;
33285;SDS011;19656;50.096;20.014;2022-09-12T18:15:53;12.00;;;2.90;;
33285;SDS011;19656;50.096;20.014;2022-09-12T18:20:57;6.10;;;2.40;;
33285;SDS011;19656;50.096;20.014;2022-09-12T18:26:01;5.40;;;2.70;;
33285;SDS011;19656;50.096;20.014;2022-09-12T18:31:11;5.30;;;2.80;;
33285;SDS011;19656;50.096;20.014;2022-09-12T18:36:17;6.60;;;3.10;;
33285;SDS011;19656;50.096;20.014;2022-09-12T18:41:21;12.00;;;3.00;;
33285;SDS011;19656;50.096;20.014;2022-09-12T18:46:26;9.10;;;4.40;;
33285;SDS011;19656;50.096;20.014;2022-09-12T18:51:32;5.20;;;3.00;;
33285;SDS011;19656;50.096;20.014;2022-09-12T18:56:37;5.00;;;2.50;;
33285;SDS011;19656;50.096;20.014;2022-09-12T19:01:42;4.80;;;2.70;;
33285;SDS011;19656;50.096;20.014;2022-09-12T19:06:46;5.40;;;2.70;;
33285;SDS011;19656;50.096;20.014;2022-09-12T19:11:52;4.50;;;3.20;;
33285;SDS011;19656;50.096;20.014;2022-09-12T19:16:55;6.50;;;4.00;;
33285;SDS011;19656;50.096;20.014;2022-09-12T19:21:58;15.30;;;7.80;;
33285;SDS011;19656;50.096;20.014;2022-09-12T19:27:02;16.10;;;8.60;;
33285;SDS011;19656;50.096;20.014;2022-09-12T19:32:05;10.40;;;6.10;;
33285;SDS011;19656;50.096;20.014;2022-09-12T19:37:09;17.80;;;12.30;;
33285;SDS011;19656;50.096;20.014;2022-09-12T19:42:12;11.10;;;4.30;;
33285;SDS011;19656;50.096;20.014;2022-09-12T19:47:15;8.00;;;4.00;;
33285;SDS011;19656;50.096;20.014;2022-09-12T19:52:18;7.40;;;4.10;;
33285;SDS011;19656;50.096;20.014;2022-09-12T19:57:21;6.80;;;4.20;;
33285;SDS011;19656;50.096;20.014;2022-09-12T20:02:24;6.30;;;3.50;;
33285;SDS011;19656;50.096;20.014;2022-09-12T20:07:29;8.60;;;3.70;;
33285;SDS011;19656;50.096;20.014;2022-09-12T20:12:32;10.10;;;3.80;;
33285;SDS011;19656;50.096;20.014;2022-09-12T20:17:35;8.10;;;4.40;;
33285;SDS011;19656;50.096;20.014;2022-09-12T20:22:38;7.30;;;4.10;;
33285;SDS011;19656;50.096;20.014;2022-09-12T20:27:42;9.80;;;4.10;;
33285;SDS011;19656;50.096;20.014;2022-09-12T20:32:45;7.20;;;4.10;;
33285;SDS011;19656;50.096;20.014;2022-09-12T20:37:48;7.20;;;4.00;;
33285;SDS011;19656;50.096;20.014;2022-09-12T20:42:51;7.50;;;4.10;;
33285;SDS011;19656;50.096;20.014;2022-09-12T20:47:54;7.80;;;3.90;;
33285;SDS011;19656;50.096;20.014;2022-09-12T20:52:57;9.40;;;5.00;;
33285;SDS011;19656;50.096;20.014;2022-09-12T20:58:00;7.70;;;4.10;;
33285;SDS011;19656;50.096;20.014;2022-09-12T21:03:03;8.20;;;4.80;;
33285;SDS011;19656;50.096;20.014;2022-09-12T21:08:06;8.70;;;4.50;;
33285;SDS011;19656;50.096;20.014;2022-09-12T21:13:10;7.70;;;4.30;;
33285;SDS011;19656;50.096;20.014;2022-09-12T21:18:14;9.60;;;4.20;;
33285;SDS011;19656;50.096;20.014;2022-09-12T21:23:17;8.10;;;4.30;;
33285;SDS011;19656;50.096;20.014;2022-09-12T21:28:20;7.60;;;4.30;;
33285;SDS011;19656;50.096;20.014;2022-09-12T21:33:23;8.70;;;4.10;;
33285;SDS011;19656;50.096;20.014;2022-09-12T21:38:26;10.00;;;4.60;;
33285;SDS011;19656;50.096;20.014;2022-09-12T21:43:29;7.00;;;4.00;;
33285;SDS011;19656;50.096;20.014;2022-09-12T21:48:32;6.80;;;4.20;;
33285;SDS011;19656;50.096;20.014;2022-09-12T21:53:35;9.40;;;5.10;;
33285;SDS011;19656;50.096;20.014;2022-09-12T21:58:39;8.70;;;4.70;;
33285;SDS011;19656;50.096;20.014;2022-09-12T22:03:42;8.60;;;4.80;;
33285;SDS011;19656;50.096;20.014;2022-09-12T22:08:46;8.60;;;4.50;;
33285;SDS011;19656;50.096;20.014;2022-09-12T22:13:49;7.20;;;4.50;;
33285;SDS011;19656;50.096;20.014;2022-09-12T22:18:52;8.40;;;4.80;;
33285;SDS011;19656;50.096;20.014;2022-09-12T22:23:55;10.40;;;4.90;;
33285;SDS011;19656;50.096;20.014;2022-09-12T22:29:27;11.50;;;5.00;;
33285;SDS011;19656;50.096;20.014;2022-09-12T22:34:30;8.50;;;5.20;;
33285;SDS011;19656;50.096;20.014;2022-09-12T22:39:33;9.20;;;5.40;;
33285;SDS011;19656;50.096;20.014;2022-09-12T22:44:36;10.80;;;4.90;;
33285;SDS011;19656;50.096;20.014;2022-09-12T22:49:41;13.30;;;5.10;;
33285;SDS011;19656;50.096;20.014;2022-09-12T22:54:44;10.50;;;5.60;;
33285;SDS011;19656;50.096;20.014;2022-09-12T22:59:47;9.40;;;4.70;;
33285;SDS011;19656;50.096;20.014;2022-09-12T23:04:50;9.20;;;5.60;;
33285;SDS011;19656;50.096;20.014;2022-09-12T23:09:53;9.20;;;5.60;;
33285;SDS011;19656;50.096;20.014;2022-09-12T23:14:56;8.70;;;5.40;;
33285;SDS011;19656;50.096;20.014;2022-09-12T23:19:59;11.00;;;6.00;;
33285;SDS011;19656;50.096;20.014;2022-09-12T23:25:03;11.70;;;5.30;;
33285;SDS011;19656;50.096;20.014;2022-09-12T23:30:06;9.40;;;5.60;;
33285;SDS011;19656;50.096;20.014;2022-09-12T23:35:12;11.50;;;5.80;;
33285;SDS011;19656;50.096;20.014;2022-09-12T23:40:17;11.90;;;6.00;;
33285;SDS011;19656;50.096;20.014;2022-09-12T23:45:20;9.80;;;5.90;;
33285;SDS011;19656;50.096;20.014;2022-09-12T23:50:23;10.50;;;6.60;;
33285;SDS011;19656;50.096;20.014;2022-09-12T23:55:26;10.80;;;6.30;;
